Time;durP1;ratioP1;P1;durP2;ratioP2;P2;SDS_P1;SDS_P2;PMS_P1;PMS_P2;Temp;Humidity;BMP_temperature;BMP_pressure;BME280_temperature;BME280_humidity;BME280_pressure;Samples;Min_cycle;Max_cycle;Signal;HPM_P1;HPM_P2
2023/06/26 00:01:24;;;;;;;11.80;5.88;;;23.70;95.00;;;;;;5004260;28;20052;-67
2023/06/26 00:03:49;;;;;;;8.98;6.18;;;23.60;95.20;;;;;;5005332;28;20064;-67
2023/06/26 00:06:15;;;;;;;10.35;6.32;;;23.70;95.30;;;;;;4991668;28;20121;-67
2023/06/26 00:08:41;;;;;;;9.80;6.45;;;23.60;95.30;;;;;;5004398;28;20044;-67
2023/06/26 00:11:07;;;;;;;10.18;6.80;;;23.60;95.30;;;;;;5003656;28;20610;-67
2023/06/26 00:13:34;;;;;;;9.80;6.47;;;23.60;95.50;;;;;;5006000;28;20045;-67
2023/06/26 00:16:03;;;;;;;9.48;6.53;;;23.50;95.50;;;;;;5006222;28;20506;-67
2023/06/26 00:18:29;;;;;;;8.40;6.07;;;23.50;95.50;;;;;;5000589;28;20053;-67
2023/06/26 00:20:54;;;;;;;10.52;6.00;;;23.50;95.70;;;;;;5007196;28;20775;-67
2023/06/26 00:23:20;;;;;;;10.73;6.70;;;23.50;95.70;;;;;;5001819;28;20046;-67
2023/06/26 00:25:46;;;;;;;10.35;6.57;;;23.50;95.90;;;;;;5003639;28;20407;-68
2023/06/26 00:28:11;;;;;;;9.88;6.90;;;23.40;95.90;;;;;;5003122;28;20038;-67
2023/06/26 00:30:37;;;;;;;9.32;6.28;;;23.40;95.90;;;;;;5008918;28;20056;-67
2023/06/26 00:33:03;;;;;;;9.82;6.55;;;23.40;96.30;;;;;;5005194;28;20107;-66
2023/06/26 00:35:29;;;;;;;9.60;6.13;;;23.40;96.10;;;;;;5006216;28;20395;-66
2023/06/26 00:37:54;;;;;;;9.57;5.97;;;23.40;96.00;;;;;;5002111;28;20053;-67
2023/06/26 00:40:20;;;;;;;8.90;5.88;;;23.40;96.10;;;;;;5006401;28;20046;-67
2023/06/26 00:42:46;;;;;;;11.10;6.15;;;23.30;96.00;;;;;;5005742;28;20053;-67
2023/06/26 00:45:12;;;;;;;9.55;6.38;;;23.30;96.60;;;;;;5008186;28;20034;-67
2023/06/26 00:47:38;;;;;;;9.10;6.13;;;23.30;96.30;;;;;;5005036;28;20057;-67
2023/06/26 00:50:05;;;;;;;10.07;6.55;;;23.30;96.30;;;;;;5005088;28;20034;-66
2023/06/26 00:52:32;;;;;;;9.70;6.50;;;23.30;96.40;;;;;;5003584;28;20410;-68
2023/06/26 00:54:58;;;;;;;10.95;6.22;;;23.20;96.40;;;;;;5005403;28;20061;-67
2023/06/26 00:57:24;;;;;;;10.23;6.63;;;23.20;96.40;;;;;;5001187;28;20050;-67
2023/06/26 00:59:50;;;;;;;9.80;6.10;;;23.20;96.60;;;;;;5007188;28;20622;-66
2023/06/26 01:02:20;;;;;;;10.50;6.68;;;23.20;96.50;;;;;;5006114;28;20119;-67
2023/06/26 01:04:48;;;;;;;9.75;6.80;;;23.20;96.60;;;;;;5003381;28;20042;-67
2023/06/26 01:07:16;;;;;;;11.38;6.82;;;23.20;96.70;;;;;;4999119;28;20042;-67
2023/06/26 01:09:42;;;;;;;9.15;6.65;;;23.10;96.80;;;;;;5005645;28;20042;-68
2023/06/26 01:12:08;;;;;;;12.38;7.05;;;23.10;97.00;;;;;;5002387;28;20049;-67
2023/06/26 01:14:36;;;;;;;9.73;6.38;;;23.10;96.90;;;;;;4989554;28;20042;-66
2023/06/26 01:17:02;;;;;;;11.95;7.60;;;23.10;96.90;;;;;;5006280;28;20046;-67
2023/06/26 01:19:33;;;;;;;12.70;7.70;;;23.10;96.90;;;;;;5002686;28;20054;-66
2023/06/26 01:22:17;;;;;;;;;;;23.10;97.00;;;;;;5005316;28;20054;-67
2023/06/26 01:25:01;;;;;;;10.40;6.50;;;23.00;96.90;;;;;;5006046;28;20460;-67
2023/06/26 01:27:28;;;;;;;10.45;6.63;;;23.00;97.00;;;;;;5002948;28;20411;-67
2023/06/26 01:29:55;;;;;;;10.35;7.22;;;23.00;97.10;;;;;;5004388;28;20090;-66
2023/06/26 01:32:22;;;;;;;10.07;7.07;;;23.00;97.30;;;;;;5004253;28;20037;-67
2023/06/26 01:34:48;;;;;;;11.45;7.47;;;23.00;97.20;;;;;;5006022;28;20117;-67
2023/06/26 01:37:13;;;;;;;10.45;7.40;;;23.00;97.30;;;;;;5005332;28;20376;-67
2023/06/26 01:39:39;;;;;;;11.05;7.38;;;23.00;97.30;;;;;;5004801;28;20038;-67
2023/06/26 01:42:05;;;;;;;10.15;7.47;;;22.90;97.20;;;;;;5003158;28;20121;-67
2023/06/26 01:44:36;;;;;;;11.75;7.78;;;22.90;97.40;;;;;;4999766;28;20124;-67
2023/06/26 01:47:04;;;;;;;10.05;7.40;;;22.90;97.60;;;;;;5000318;28;20491;-67
2023/06/26 01:49:51;;;;;;;10.82;7.40;;;22.80;97.50;;;;;;5003846;28;20065;-67
2023/06/26 01:52:17;;;;;;;12.85;7.85;;;22.90;97.80;;;;;;5004551;28;20054;-67
2023/06/26 01:55:07;;;;;;;12.82;8.30;;;22.80;97.90;;;;;;5001940;28;20123;-67
2023/06/26 01:57:35;;;;;;;9.93;7.57;;;22.80;97.90;;;;;;5004318;28;20049;-67
2023/06/26 02:00:02;;;;;;;11.30;8.15;;;22.80;98.00;;;;;;5005308;28;20053;-67
2023/06/26 02:02:31;;;;;;;12.13;7.72;;;22.80;98.00;;;;;;5001095;28;20042;-67
2023/06/26 02:04:56;;;;;;;14.13;7.97;;;22.70;97.90;;;;;;5003598;28;20091;-67
2023/06/26 02:07:22;;;;;;;14.30;7.57;;;22.70;98.10;;;;;;5000912;28;20577;-67
2023/06/26 02:09:48;;;;;;;10.13;7.22;;;22.70;98.00;;;;;;5002570;28;20042;-67
2023/06/26 02:12:14;;;;;;;10.48;7.10;;;22.70;98.00;;;;;;5003456;28;20041;-67
2023/06/26 02:14:40;;;;;;;11.23;8.05;;;22.70;98.00;;;;;;5004044;28;20054;-67
2023/06/26 02:17:06;;;;;;;16.70;8.07;;;22.70;98.20;;;;;;5004475;28;20130;-67
2023/06/26 02:19:32;;;;;;;10.95;7.65;;;22.70;98.20;;;;;;5000687;28;20454;-67
2023/06/26 02:21:58;;;;;;;11.30;8.15;;;22.70;98.20;;;;;;5002602;28;20046;-67
2023/06/26 02:24:23;;;;;;;11.43;8.57;;;22.70;98.30;;;;;;5002634;28;20530;-67
2023/06/26 02:26:49;;;;;;;12.13;9.07;;;22.70;98.50;;;;;;5002178;28;20164;-67
2023/06/26 02:29:15;;;;;;;10.90;8.70;;;22.60;98.80;;;;;;5003256;28;20546;-67
2023/06/26 02:31:41;;;;;;;12.65;9.15;;;22.60;98.90;;;;;;5001383;28;20056;-67
2023/06/26 02:34:07;;;;;;;13.90;9.18;;;22.60;99.20;;;;;;5004005;28;20046;-67
2023/06/26 02:36:32;;;;;;;18.05;9.95;;;22.60;99.30;;;;;;5004422;28;20049;-67
2023/06/26 02:38:58;;;;;;;13.45;10.15;;;22.50;99.40;;;;;;5016416;28;20813;-67
2023/06/26 02:41:24;;;;;;;15.98;9.93;;;22.50;99.60;;;;;;5003793;28;20041;-67
2023/06/26 02:43:49;;;;;;;12.13;8.35;;;22.50;99.40;;;;;;4985871;28;20130;-67
2023/06/26 02:46:15;;;;;;;14.45;9.00;;;22.40;99.50;;;;;;4999150;28;20050;-67
2023/06/26 02:48:41;;;;;;;12.40;9.32;;;22.40;99.70;;;;;;5001309;28;20038;-67
2023/06/26 02:51:07;;;;;;;14.45;9.40;;;22.40;99.80;;;;;;4980651;28;20034;-67
2023/06/26 02:53:33;;;;;;;13.95;9.05;;;22.40;99.90;;;;;;5000817;28;20125;-68
2023/06/26 02:55:59;;;;;;;13.52;10.15;;;22.40;99.90;;;;;;5004212;28;20184;-67
2023/06/26 02:58:25;;;;;;;14.23;9.50;;;22.40;99.90;;;;;;5003785;28;20049;-67
2023/06/26 03:00:51;;;;;;;13.18;9.82;;;22.40;99.90;;;;;;5001317;28;20042;-68
2023/06/26 03:03:17;;;;;;;12.18;9.00;;;22.40;99.90;;;;;;5006548;28;20050;-68
2023/06/26 03:05:43;;;;;;;13.43;8.98;;;22.30;99.90;;;;;;5003942;28;20042;-68
2023/06/26 03:08:08;;;;;;;15.20;9.43;;;22.30;99.90;;;;;;5003568;28;20038;-67
2023/06/26 03:10:34;;;;;;;14.15;9.85;;;22.20;99.90;;;;;;5004340;28;20491;-67
2023/06/26 03:13:00;;;;;;;13.00;10.13;;;22.20;99.90;;;;;;5001691;28;20152;-68
2023/06/26 03:15:26;;;;;;;12.05;8.98;;;22.20;99.90;;;;;;5000006;28;20073;-68
2023/06/26 03:17:51;;;;;;;13.73;9.50;;;22.10;99.90;;;;;;5000857;28;20499;-67
2023/06/26 03:20:17;;;;;;;13.68;9.95;;;22.10;99.90;;;;;;4998308;28;21099;-67
2023/06/26 03:22:43;;;;;;;13.32;9.52;;;22.20;99.90;;;;;;4999450;28;20046;-67
2023/06/26 03:25:08;;;;;;;12.55;9.18;;;22.10;99.90;;;;;;5002874;28;20494;-67
2023/06/26 03:27:34;;;;;;;12.63;9.57;;;22.10;99.90;;;;;;5003106;28;20034;-67
2023/06/26 03:30:00;;;;;;;18.10;9.05;;;22.10;99.90;;;;;;4999924;28;20085;-67
2023/06/26 03:32:26;;;;;;;12.98;8.70;;;22.10;99.90;;;;;;5003841;28;20042;-67
2023/06/26 03:34:52;;;;;;;11.90;8.57;;;22.10;99.90;;;;;;5003929;28;20088;-67
2023/06/26 03:37:18;;;;;;;12.65;9.02;;;22.10;99.90;;;;;;4999556;28;20112;-67
2023/06/26 03:39:44;;;;;;;15.10;9.27;;;22.10;99.90;;;;;;5000651;28;20563;-67
2023/06/26 03:42:10;;;;;;;11.57;8.73;;;22.10;99.90;;;;;;4983254;28;20049;-67
2023/06/26 03:44:35;;;;;;;13.52;8.70;;;22.00;99.90;;;;;;5001830;28;20046;-67
2023/06/26 03:47:01;;;;;;;10.50;7.90;;;22.10;99.90;;;;;;5001857;28;20050;-67
2023/06/26 03:49:27;;;;;;;12.82;8.60;;;22.10;99.90;;;;;;4997012;28;20129;-67
2023/06/26 03:51:53;;;;;;;14.25;9.38;;;22.10;99.90;;;;;;5003210;28;20045;-67
2023/06/26 03:54:18;;;;;;;11.95;8.55;;;22.10;99.90;;;;;;4985918;28;20042;-67
2023/06/26 03:56:44;;;;;;;14.40;8.77;;;22.10;99.90;;;;;;5002456;28;20037;-66
2023/06/26 03:59:10;;;;;;;12.70;7.88;;;22.00;99.90;;;;;;5003141;28;20041;-67
2023/06/26 04:01:37;;;;;;;12.93;8.20;;;22.00;99.90;;;;;;4982841;28;20057;-67
2023/06/26 04:04:03;;;;;;;10.60;7.65;;;22.00;99.90;;;;;;5001488;28;20034;-67
2023/06/26 04:06:31;;;;;;;11.82;7.95;;;22.00;99.90;;;;;;5003430;28;20044;-68
2023/06/26 04:08:57;;;;;;;12.55;7.90;;;22.00;99.90;;;;;;5001340;28;20400;-67
2023/06/26 04:11:24;;;;;;;19.55;7.88;;;22.00;99.90;;;;;;4999303;28;20049;-67
2023/06/26 04:13:49;;;;;;;12.00;8.00;;;22.00;99.90;;;;;;4997876;28;20061;-66
2023/06/26 04:16:15;;;;;;;11.25;7.72;;;21.90;99.90;;;;;;4983359;28;20677;-67
2023/06/26 04:18:41;;;;;;;12.23;8.13;;;21.90;99.90;;;;;;4987532;28;20579;-66
2023/06/26 04:21:09;;;;;;;11.50;7.65;;;21.90;99.90;;;;;;4996512;28;20073;-67
2023/06/26 04:23:35;;;;;;;11.25;7.00;;;21.90;99.90;;;;;;5009365;28;20100;-67
2023/06/26 04:26:02;;;;;;;11.65;7.13;;;21.90;99.90;;;;;;5008150;28;20100;-67
2023/06/26 04:28:28;;;;;;;10.88;6.65;;;21.90;99.90;;;;;;4991557;28;20073;-67
2023/06/26 04:30:54;;;;;;;14.05;7.18;;;21.90;99.90;;;;;;5007671;28;20165;-67
2023/06/26 04:33:20;;;;;;;15.80;7.20;;;21.90;99.90;;;;;;5007949;28;20148;-67
2023/06/26 04:35:48;;;;;;;15.57;7.63;;;21.90;99.90;;;;;;5008037;28;20572;-66
2023/06/26 04:38:15;;;;;;;15.57;7.68;;;21.90;99.90;;;;;;5008358;28;20450;-67
2023/06/26 04:40:41;;;;;;;13.93;7.03;;;22.00;99.90;;;;;;5008527;28;20053;-67
2023/06/26 04:43:08;;;;;;;12.77;6.97;;;21.90;99.90;;;;;;5006754;28;20060;-67
2023/06/26 04:45:33;;;;;;;15.05;7.18;;;22.00;99.90;;;;;;5021372;28;20065;-67
2023/06/26 04:48:00;;;;;;;15.85;7.10;;;22.10;99.90;;;;;;4990111;28;20050;-67
2023/06/26 04:50:28;;;;;;;13.02;6.53;;;22.10;99.90;;;;;;5006256;28;20501;-66
2023/06/26 04:52:55;;;;;;;15.68;7.53;;;22.10;99.90;;;;;;5007446;28;20415;-67
2023/06/26 04:55:23;;;;;;;16.52;8.68;;;22.10;99.90;;;;;;5003177;28;20054;-67
2023/06/26 04:57:49;;;;;;;16.15;8.38;;;22.00;99.90;;;;;;5006206;28;20108;-67
2023/06/26 05:00:15;;;;;;;17.73;8.52;;;21.90;99.90;;;;;;5000284;28;20531;-70
2023/06/26 05:02:41;;;;;;;21.85;9.57;;;21.90;99.90;;;;;;5004767;28;20131;-68
2023/06/26 05:05:07;;;;;;;19.15;9.98;;;21.90;99.90;;;;;;4998761;28;20041;-68
2023/06/26 05:07:33;;;;;;;20.52;9.77;;;21.80;99.90;;;;;;4984843;28;20044;-68
2023/06/26 05:09:59;;;;;;;18.90;9.15;;;21.80;99.90;;;;;;4985082;28;20049;-68
2023/06/26 05:12:24;;;;;;;22.08;9.98;;;21.70;99.90;;;;;;4987322;28;20104;-68
2023/06/26 05:14:50;;;;;;;17.52;9.68;;;21.60;99.90;;;;;;4972403;28;20050;-67
2023/06/26 05:17:16;;;;;;;16.38;8.35;;;21.60;99.90;;;;;;4989790;28;20046;-67
2023/06/26 05:19:42;;;;;;;17.63;8.40;;;21.50;99.90;;;;;;4988097;28;20052;-68
2023/06/26 05:22:08;;;;;;;16.85;7.28;;;21.50;99.90;;;;;;4987836;28;20050;-68
2023/06/26 05:24:38;;;;;;;17.23;6.55;;;21.40;99.90;;;;;;4993036;28;20049;-67
2023/06/26 05:27:05;;;;;;;14.75;6.70;;;21.40;99.90;;;;;;4963996;28;20083;-67
2023/06/26 05:29:33;;;;;;;18.60;6.45;;;21.40;99.90;;;;;;4986708;28;20103;-67
2023/06/26 05:32:01;;;;;;;18.85;6.25;;;21.30;99.90;;;;;;4982415;28;20047;-67
2023/06/26 05:34:28;;;;;;;16.83;5.78;;;21.20;99.90;;;;;;4989935;28;22154;-67
2023/06/26 05:36:58;;;;;;;17.15;5.72;;;21.20;99.90;;;;;;4995323;28;20050;-67
2023/06/26 05:39:24;;;;;;;12.57;5.72;;;21.20;99.90;;;;;;4979302;28;20171;-67
2023/06/26 05:41:51;;;;;;;13.88;6.25;;;21.20;99.90;;;;;;4974527;28;20085;-66
2023/06/26 05:44:17;;;;;;;13.95;5.90;;;21.10;99.90;;;;;;4976318;28;20053;-67
2023/06/26 05:46:43;;;;;;;14.23;5.32;;;21.10;99.90;;;;;;4986375;28;20041;-67
2023/06/26 05:49:09;;;;;;;17.13;4.78;;;21.10;99.90;;;;;;4983125;28;20423;-66
2023/06/26 05:51:35;;;;;;;13.50;5.22;;;21.00;99.90;;;;;;4987780;28;20108;-67
2023/06/26 05:54:01;;;;;;;20.73;5.15;;;21.00;99.90;;;;;;4984924;28;20138;-66
2023/06/26 05:56:27;;;;;;;15.48;4.40;;;20.90;99.90;;;;;;4985668;28;20045;-67
2023/06/26 05:58:54;;;;;;;15.45;5.20;;;20.90;99.90;;;;;;4998507;28;20038;-67
2023/06/26 06:01:20;;;;;;;14.10;4.90;;;20.90;99.90;;;;;;5003122;28;20049;-67
2023/06/26 06:03:46;;;;;;;17.02;4.68;;;20.90;99.90;;;;;;4997819;28;20439;-67
2023/06/26 06:06:11;;;;;;;13.43;4.63;;;20.90;99.90;;;;;;5000187;28;20047;-67
2023/06/26 06:08:37;;;;;;;14.98;4.32;;;21.20;99.90;;;;;;4998452;28;20411;-67
2023/06/26 06:11:03;;;;;;;16.95;3.65;;;21.40;99.90;;;;;;5004265;28;20419;-67
2023/06/26 06:13:29;;;;;;;14.27;3.92;;;21.70;99.90;;;;;;5006567;28;20033;-67
2023/06/26 06:15:55;;;;;;;14.52;3.90;;;21.90;99.90;;;;;;4992677;28;20505;-67
2023/06/26 06:18:21;;;;;;;16.55;3.63;;;22.00;99.90;;;;;;4989470;28;21787;-67
2023/06/26 06:20:47;;;;;;;16.35;3.70;;;22.20;99.90;;;;;;4989396;28;20068;-67
2023/06/26 06:23:13;;;;;;;12.15;3.55;;;22.50;99.90;;;;;;4997598;28;20075;-67
2023/06/26 06:25:39;;;;;;;15.32;3.78;;;22.70;99.90;;;;;;4993377;28;20037;-68
2023/06/26 06:28:05;;;;;;;11.48;3.47;;;22.70;99.90;;;;;;4994942;28;20038;-67
2023/06/26 06:30:31;;;;;;;13.02;3.60;;;22.70;99.90;;;;;;5000778;28;20046;-67
2023/06/26 06:32:58;;;;;;;11.95;3.47;;;22.50;99.90;;;;;;5005242;28;20465;-67
2023/06/26 06:35:23;;;;;;;12.70;3.33;;;22.40;99.90;;;;;;4999673;28;20445;-67
2023/06/26 06:37:49;;;;;;;12.77;2.92;;;22.30;99.90;;;;;;4987687;28;20049;-68
2023/06/26 06:40:16;;;;;;;11.70;2.80;;;22.20;99.90;;;;;;5003747;28;20474;-68
2023/06/26 06:42:41;;;;;;;10.40;2.88;;;22.10;99.90;;;;;;5002886;28;20049;-67
2023/06/26 06:45:08;;;;;;;11.23;2.88;;;22.00;99.90;;;;;;5002742;28;20044;-68
2023/06/26 06:47:33;;;;;;;15.25;3.55;;;21.90;99.90;;;;;;5003306;28;20041;-67
2023/06/26 06:50:07;;;;;;;13.70;3.45;;;21.90;99.90;;;;;;5003794;28;20038;-68
2023/06/26 06:52:37;;;;;;;15.25;3.03;;;21.90;99.90;;;;;;4988242;28;20053;-67
2023/06/26 06:55:08;;;;;;;14.63;3.00;;;21.90;99.90;;;;;;5001929;28;20149;-67
2023/06/26 06:57:38;;;;;;;12.82;3.00;;;21.90;99.90;;;;;;4982085;28;20317;-67
2023/06/26 07:00:08;;;;;;;10.50;2.58;;;21.90;99.90;;;;;;5005573;28;20058;-67
2023/06/26 07:02:39;;;;;;;10.57;3.10;;;21.90;99.90;;;;;;5000867;28;20135;-67
2023/06/26 07:05:05;;;;;;;11.52;2.92;;;21.80;99.90;;;;;;5001320;28;20080;-67
2023/06/26 07:07:32;;;;;;;10.82;2.25;;;21.90;99.90;;;;;;5002968;28;20067;-67
2023/06/26 07:10:03;;;;;;;11.30;2.50;;;21.90;99.90;;;;;;5004093;28;20116;-68
2023/06/26 07:12:29;;;;;;;9.57;2.40;;;21.90;99.90;;;;;;5003842;28;20556;-67
2023/06/26 07:14:56;;;;;;;8.18;2.03;;;21.80;99.90;;;;;;5003801;28;20046;-67
2023/06/26 07:17:22;;;;;;;14.70;2.50;;;21.90;99.90;;;;;;5002177;28;20038;-68
2023/06/26 07:19:49;;;;;;;7.07;1.80;;;22.00;99.90;;;;;;5001018;28;20104;-68
2023/06/26 07:22:15;;;;;;;10.40;2.65;;;22.10;99.90;;;;;;4987990;28;20535;-67
2023/06/26 07:24:41;;;;;;;10.77;2.17;;;22.20;99.90;;;;;;4988856;28;20141;-68
2023/06/26 07:27:06;;;;;;;11.60;2.60;;;22.40;99.90;;;;;;5003283;28;20041;-67
2023/06/26 07:29:33;;;;;;;8.82;2.05;;;22.40;99.90;;;;;;5003278;28;20125;-68
2023/06/26 07:31:58;;;;;;;8.63;2.15;;;22.50;99.90;;;;;;5004662;28;20085;-68
2023/06/26 07:34:24;;;;;;;8.98;2.03;;;22.70;99.90;;;;;;5005310;28;20096;-68
2023/06/26 07:36:50;;;;;;;8.05;2.13;;;22.70;99.90;;;;;;5005534;28;20049;-68
2023/06/26 07:39:16;;;;;;;12.00;2.15;;;22.80;99.90;;;;;;5003430;28;20100;-67
2023/06/26 07:41:41;;;;;;;13.80;1.95;;;22.70;99.90;;;;;;5003144;28;20050;-67
2023/06/26 07:44:07;;;;;;;7.15;2.00;;;22.70;99.90;;;;;;5001223;28;20135;-69
2023/06/26 07:46:33;;;;;;;6.80;1.48;;;22.70;99.90;;;;;;5004442;28;20136;-68
2023/06/26 07:48:59;;;;;;;9.32;2.10;;;22.70;99.90;;;;;;5004942;28;20042;-67
2023/06/26 07:51:24;;;;;;;7.93;2.22;;;22.60;99.90;;;;;;5005310;28;20470;-67
2023/06/26 07:53:50;;;;;;;8.02;2.17;;;22.60;99.90;;;;;;5001128;28;20540;-68
2023/06/26 07:56:16;;;;;;;7.63;1.67;;;22.50;99.90;;;;;;5005789;28;20179;-67
2023/06/26 07:58:42;;;;;;;8.15;2.10;;;22.60;99.90;;;;;;5009949;28;20692;-67
2023/06/26 08:01:07;;;;;;;8.15;2.67;;;22.70;99.90;;;;;;5005914;28;20056;-68
2023/06/26 08:03:33;;;;;;;7.88;2.00;;;22.70;99.90;;;;;;4989097;28;20568;-67
2023/06/26 08:05:59;;;;;;;6.38;1.70;;;22.80;99.90;;;;;;5001227;28;20060;-69
2023/06/26 08:08:24;;;;;;;7.00;1.73;;;22.90;99.90;;;;;;5006966;28;20042;-67
2023/06/26 08:10:50;;;;;;;5.95;1.50;;;23.00;99.90;;;;;;5004831;28;20724;-68
2023/06/26 08:13:16;;;;;;;8.40;1.80;;;23.00;99.90;;;;;;5008341;28;20308;-67
2023/06/26 08:15:42;;;;;;;5.72;1.75;;;23.00;99.90;;;;;;5007150;28;20045;-67
2023/06/26 08:18:07;;;;;;;8.23;2.22;;;23.00;99.90;;;;;;5005606;28;20049;-67
2023/06/26 08:20:35;;;;;;;7.15;1.77;;;23.00;99.90;;;;;;5006466;28;20038;-67
2023/06/26 08:23:01;;;;;;;6.00;1.55;;;23.10;99.90;;;;;;5008216;28;20092;-67
2023/06/26 08:25:27;;;;;;;7.43;1.75;;;23.10;99.90;;;;;;5005314;28;20050;-68
2023/06/26 08:27:53;;;;;;;6.35;1.88;;;23.20;99.90;;;;;;5006296;28;20053;-67
2023/06/26 08:30:19;;;;;;;8.73;2.67;;;23.10;99.90;;;;;;4991018;28;20057;-67
2023/06/26 08:32:45;;;;;;;10.30;2.00;;;23.10;99.90;;;;;;5008321;28;20054;-67
2023/06/26 08:35:11;;;;;;;6.47;1.70;;;23.20;99.90;;;;;;5005491;28;20046;-67
2023/06/26 08:37:36;;;;;;;7.85;1.92;;;23.10;99.90;;;;;;5004217;28;20492;-67
2023/06/26 08:40:03;;;;;;;6.53;1.73;;;23.10;99.90;;;;;;5007486;28;20049;-67
2023/06/26 08:42:29;;;;;;;6.07;2.00;;;23.00;99.90;;;;;;5007710;28;20510;-68
2023/06/26 08:44:58;;;;;;;6.72;1.98;;;23.00;99.90;;;;;;5007806;28;20056;-66
2023/06/26 08:47:25;;;;;;;9.40;2.13;;;22.90;99.90;;;;;;5006119;28;20092;-68
2023/06/26 08:50:06;;;;;;;4.60;1.75;;;23.00;99.90;;;;;;5007231;28;20083;-68
2023/06/26 08:53:30;;;;;;;7.72;1.83;;;22.90;99.90;;;;;;4994527;28;20069;-68
2023/06/26 08:55:58;;;;;;;8.38;2.33;;;23.00;99.90;;;;;;4961389;28;20400;-69
2023/06/26 08:58:24;;;;;;;5.85;2.10;;;23.00;99.90;;;;;;4948780;28;20687;-68
2023/06/26 09:00:50;;;;;;;6.13;1.77;;;22.90;99.90;;;;;;4986306;28;20078;-69
2023/06/26 09:03:16;;;;;;;8.35;1.90;;;23.00;99.90;;;;;;5007270;28;20156;-69
2023/06/26 09:05:42;;;;;;;7.95;2.17;;;23.00;99.90;;;;;;5005752;28;20045;-68
2023/06/26 09:08:08;;;;;;;7.78;2.22;;;23.00;99.90;;;;;;5005548;28;20486;-68
2023/06/26 09:10:34;;;;;;;6.00;1.73;;;23.00;99.90;;;;;;4990195;28;20069;-68
2023/06/26 09:13:03;;;;;;;4.88;1.50;;;23.00;99.90;;;;;;5007721;28;20042;-68
2023/06/26 09:15:46;;;;;;;8.40;1.65;;;23.00;99.90;;;;;;5007149;28;20080;-68
2023/06/26 09:18:13;;;;;;;7.15;1.92;;;22.90;99.90;;;;;;5005805;28;20042;-67
2023/06/26 09:20:39;;;;;;;7.30;1.60;;;22.80;99.90;;;;;;5006063;28;20719;-67
2023/06/26 09:23:05;;;;;;;4.70;1.67;;;22.70;99.90;;;;;;5006241;28;20108;-68
2023/06/26 09:25:31;;;;;;;4.72;1.60;;;22.70;99.90;;;;;;4991532;28;20108;-68
2023/06/26 09:27:57;;;;;;;7.35;1.75;;;22.80;99.90;;;;;;5005469;28;20045;-70
2023/06/26 09:30:23;;;;;;;6.85;2.10;;;22.80;99.90;;;;;;4997791;28;20062;-68
2023/06/26 09:32:50;;;;;;;6.35;2.13;;;22.80;99.90;;;;;;5005287;28;20045;-67
2023/06/26 09:35:17;;;;;;;7.90;2.42;;;22.80;99.90;;;;;;5003902;28;20054;-67
2023/06/26 09:37:43;;;;;;;7.50;2.13;;;22.80;99.90;;;;;;5002916;28;20041;-67
2023/06/26 09:40:09;;;;;;;6.40;2.00;;;22.70;99.90;;;;;;5001638;28;20042;-67
2023/06/26 09:42:35;;;;;;;8.18;2.13;;;22.70;99.90;;;;;;5003790;28;20052;-67
2023/06/26 09:45:02;;;;;;;9.02;2.35;;;22.70;99.90;;;;;;5006413;28;20050;-68
2023/06/26 09:47:31;;;;;;;7.75;2.70;;;22.80;99.90;;;;;;4988940;28;20049;-68
2023/06/26 09:49:57;;;;;;;9.05;2.63;;;22.80;99.90;;;;;;5002368;28;20041;-67
2023/06/26 09:52:27;;;;;;;9.88;2.60;;;22.80;99.90;;;;;;5004053;28;20038;-67
2023/06/26 09:55:10;;;;;;;8.73;2.40;;;22.80;99.90;;;;;;5000363;28;20514;-68
2023/06/26 09:57:36;;;;;;;7.15;2.00;;;22.80;99.90;;;;;;5000448;28;20064;-68
2023/06/26 10:00:04;;;;;;;9.68;2.85;;;22.80;99.90;;;;;;5003027;28;20038;-68
2023/06/26 10:02:30;;;;;;;8.00;2.25;;;22.90;99.90;;;;;;4993599;28;20620;-68
2023/06/26 10:04:56;;;;;;;9.70;2.20;;;23.00;99.90;;;;;;4992474;28;20049;-68
2023/06/26 10:07:22;;;;;;;6.18;2.03;;;23.00;99.90;;;;;;4985537;28;20057;-68
2023/06/26 10:09:50;;;;;;;6.90;2.28;;;22.90;99.90;;;;;;4985630;28;20092;-68
2023/06/26 10:12:30;;;;;;;6.63;2.30;;;22.80;99.90;;;;;;4989520;28;20061;-68
2023/06/26 10:14:57;;;;;;;7.45;2.17;;;22.90;99.90;;;;;;4970676;28;20049;-68
2023/06/26 10:17:27;;;;;;;5.88;2.22;;;23.00;99.90;;;;;;4983440;28;20049;-68
2023/06/26 10:19:56;;;;;;;5.37;2.17;;;23.00;99.90;;;;;;4990469;28;20060;-68
2023/06/26 10:22:28;;;;;;;6.53;2.17;;;23.10;99.90;;;;;;4993804;28;20049;-69
2023/06/26 10:24:58;;;;;;;7.78;2.33;;;23.00;99.90;;;;;;4991342;28;20045;-68
2023/06/26 10:27:27;;;;;;;6.00;2.60;;;23.00;99.90;;;;;;4991088;28;20099;-68
2023/06/26 10:29:59;;;;;;;9.25;2.47;;;22.90;99.90;;;;;;4996951;28;20085;-68
2023/06/26 10:32:27;;;;;;;8.80;2.40;;;22.80;99.90;;;;;;4992537;28;20050;-68
2023/06/26 10:34:55;;;;;;;8.55;2.90;;;22.80;99.90;;;;;;5007518;28;20395;-68
2023/06/26 10:37:21;;;;;;;7.53;2.33;;;22.90;99.90;;;;;;4990107;28;20129;-67
2023/06/26 10:39:51;;;;;;;5.10;2.40;;;23.10;99.90;;;;;;4991274;28;20079;-67
2023/06/26 10:42:34;;;;;;;8.35;2.45;;;23.10;99.90;;;;;;4993044;28;20050;-68
2023/06/26 10:45:11;;;;;;;7.50;2.33;;;23.20;99.90;;;;;;4992597;28;20407;-67
2023/06/26 10:47:37;;;;;;;7.65;1.92;;;23.40;99.90;;;;;;4974022;28;20081;-67
2023/06/26 10:50:20;;;;;;;6.13;1.85;;;23.40;99.90;;;;;;4992933;28;20056;-67
2023/06/26 10:53:24;;;;;;;10.80;1.95;;;23.40;99.90;;;;;;4990667;28;20049;-67
2023/06/26 10:56:03;;;;;;;7.53;2.03;;;23.40;99.90;;;;;;4990168;28;20048;-67
2023/06/26 10:58:41;;;;;;;7.38;2.03;;;23.50;99.90;;;;;;4983543;28;20053;-68
2023/06/26 11:01:15;;;;;;;6.07;1.98;;;23.50;99.90;;;;;;4994274;28;20153;-68
2023/06/26 11:03:46;;;;;;;6.60;1.98;;;23.40;99.90;;;;;;4990557;28;20127;-68
2023/06/26 11:06:14;;;;;;;7.13;1.77;;;23.40;99.90;;;;;;4996794;28;20045;-68
2023/06/26 11:08:49;;;;;;;13.48;2.47;;;23.40;99.90;;;;;;4994752;28;20038;-66
2023/06/26 11:11:16;;;;;;;8.88;1.90;;;23.40;99.90;;;;;;4975533;28;20264;-66
2023/06/26 11:13:44;;;;;;;7.00;1.90;;;23.40;99.90;;;;;;4977467;28;20050;-67
2023/06/26 11:16:11;;;;;;;8.82;1.92;;;23.50;99.90;;;;;;4991417;28;20042;-67
2023/06/26 11:18:38;;;;;;;8.20;1.67;;;23.50;99.90;;;;;;4980276;28;20518;-67
2023/06/26 11:21:15;;;;;;;7.85;2.13;;;23.50;99.40;;;;;;4974531;28;20116;-68
2023/06/26 11:23:43;;;;;;;7.38;1.65;;;23.50;99.50;;;;;;4978405;28;20049;-67
2023/06/26 11:26:20;;;;;;;13.95;2.13;;;23.40;99.60;;;;;;4991696;28;20037;-67
2023/06/26 11:28:56;;;;;;;5.78;1.40;;;23.30;99.40;;;;;;4989075;28;20061;-67
2023/06/26 11:31:33;;;;;;;9.45;1.70;;;23.30;99.80;;;;;;4992162;28;20143;-68
2023/06/26 11:34:08;;;;;;;6.70;1.60;;;23.20;99.70;;;;;;4998008;28;20076;-67
2023/06/26 11:36:36;;;;;;;6.63;1.52;;;23.20;99.70;;;;;;4993692;28;20044;-67
2023/06/26 11:39:07;;;;;;;7.25;1.60;;;23.20;99.80;;;;;;4991644;28;20062;-68
2023/06/26 11:41:34;;;;;;;5.45;1.30;;;23.20;98.20;;;;;;4987429;28;20561;-67
2023/06/26 11:44:09;;;;;;;6.88;1.60;;;23.20;98.20;;;;;;4988519;28;21001;-67
2023/06/26 11:46:35;;;;;;;5.53;1.48;;;23.30;98.90;;;;;;4990531;28;20124;-67
2023/06/26 11:49:05;;;;;;;7.07;1.90;;;23.40;99.10;;;;;;4973016;28;20050;-67
2023/06/26 11:51:31;;;;;;;6.90;1.30;;;23.50;98.60;;;;;;5007890;28;20058;-67
2023/06/26 11:53:57;;;;;;;9.70;1.48;;;23.40;98.20;;;;;;4988657;28;20490;-67
2023/06/26 11:56:23;;;;;;;6.18;1.50;;;23.50;98.20;;;;;;5002216;28;20052;-68
2023/06/26 11:59:11;;;;;;;5.68;1.48;;;23.40;97.60;;;;;;4996487;28;20046;-72
2023/06/26 12:01:45;;;;;;;5.57;1.63;;;23.40;97.50;;;;;;4988829;28;20056;-73
2023/06/26 12:04:13;;;;;;;7.75;1.52;;;23.40;97.40;;;;;;4997564;28;20062;-73
2023/06/26 12:06:41;;;;;;;8.15;1.80;;;23.40;96.90;;;;;;4996000;28;20085;-73
2023/06/26 12:09:10;;;;;;;6.65;1.33;;;23.40;97.10;;;;;;4990365;28;20139;-73
2023/06/26 12:11:38;;;;;;;8.35;1.83;;;23.40;97.10;;;;;;4995689;28;20558;-74
2023/06/26 12:14:06;;;;;;;9.70;1.83;;;23.40;96.90;;;;;;4993566;28;20560;-72
2023/06/26 12:16:34;;;;;;;8.48;1.80;;;23.30;96.70;;;;;;4988324;28;20091;-72
2023/06/26 12:19:00;;;;;;;9.70;1.90;;;23.20;96.90;;;;;;4998108;28;20045;-72
2023/06/26 12:21:41;;;;;;;7.65;1.80;;;23.20;97.40;;;;;;4996932;28;20121;-73
2023/06/26 12:24:13;;;;;;;9.65;1.95;;;23.20;97.90;;;;;;4997415;28;20056;-73
2023/06/26 12:26:43;;;;;;;8.93;1.48;;;23.20;97.60;;;;;;5004786;28;20145;-73
2023/06/26 12:29:11;;;;;;;9.18;1.83;;;23.20;98.10;;;;;;5003635;28;20133;-73
2023/06/26 12:31:43;;;;;;;7.15;1.33;;;23.20;97.50;;;;;;4990484;28;20235;-73
2023/06/26 12:34:17;;;;;;;7.47;1.85;;;23.20;97.80;;;;;;4993382;28;20434;-73
2023/06/26 12:36:50;;;;;;;9.15;1.77;;;23.20;98.00;;;;;;4974891;28;20041;-73
2023/06/26 12:39:21;;;;;;;12.20;2.13;;;23.30;98.40;;;;;;4993702;28;20503;-73
2023/06/26 12:41:53;;;;;;;12.00;2.15;;;23.40;97.90;;;;;;4988094;28;20042;-73
2023/06/26 12:44:21;;;;;;;7.45;1.50;;;23.40;97.90;;;;;;4992056;28;20077;-73